עמוד ראשי
METAR-TAF:

METAR-TAF

שדות תעופה :

זלצבורג, אוסטריה

נמל התעופה זלצבורג

קו רוחב: 47-48N, קו אורך: 013-00E, גובה: 430מטר

תצפית מזג אוויר נוכחית

הדו"ח נערך לפני 44דקות, בשעה 22:50 UTC
רוח 2קשר עם כיוונים משתנים
טמפרטורת 4 צלסיוס
לחות 81%
לחץ 1020 hPa
ראות 10 קילומטר או יותר

METAR: LOWS 252250Z AUTO VRB02KT 9999 NCD 04/01 Q1020

זמן: 00:34 (23:34 UTC)

תחזית

הדו"ח נערך לפני 6 שעות ו 19דקות, בשעה 17:15 UTC
תחזית בתוקף מ 25 ב 18 UTC עד 26 ב 18 UTC
רוח 6קשר מכיוון צפון-מזרח
ראות 10 קילומטר או יותר
ללא עננים שבסיסם נמוך מ 5000 רגל או קומולונימבוס
זמנית מ -
26 ב 10 UTC עד 26 ב 16 UTC
רוח 12קשר מכיוון צפון-מזרח

TAF: LOWS 251715Z 2518/2618 05006KT CAVOK TX11/2613Z TN01/2605Z TEMPO 2610/2616 04012KT

תצפיות ותחזיות מזג אוויר לגבי יותר מ- 4,000 שדות תעופה ברחבי העולם. דוחות METAR ו- TAF.

התחנות הזמינות מסומנות בנקודות צהובות ואדומות על גבי המפה.

העבר את העכבר לנקודה הצבעונית על מנת לראות את שם התחנה.

לאחר מכן, לחץ כדי לראות את תוכן ואת תחזיות מזג האוויר.

כדי לשנות את המפה: לחץ על הכפתורים הירוקים עם הפלוס השחור כדי להתקרב; על הכפתור הירוק עם המקף כדי להתרחק; או בחיצים הירוקים למפות סמוכות.


METAR-TAF: